Dennis, Mississippi
Current Conditions -  °F | °C
As of 6:55 PM on Saturday 25 Oct 2014 (Local Time) from KCRX Reporting Station
Clear Clear  
Wind Chill: 68°   Ceiling: Unl
Heat Index: 68°   Visibility: 10mi
Dew Point: 63°   Wind: 3mph
Humidity: 83%   Direction: 260°W
Pressure: 30.03"   Gusts: NA
Location:  34.56°N, 88.23°W
Report Text: KCRX 252355Z AUTO 26003KT 10SM CLR 20/17 A3003 RMK AO2
Loading
Personal Weather Stations






























Interactive Weather Map
Tropical Storm Tracking
New forecast layout! Learn more

10-Day Weather Forecast

Advertisements
Track Severe Weather on mobile